Time;durP1;ratioP1;P1;durP2;ratioP2;P2;SDS_P1;SDS_P2;PMS_P1;PMS_P2;Temp;Humidity;BMP_temperature;BMP_pressure;BME280_temperature;BME280_humidity;BME280_pressure;Samples;Min_cycle;Max_cycle;Signal;HPM_P1;HPM_P2
2021/08/23 00:02:09;;;;;;;;;;;13.60;99.90;;;;;;5093352;28;19909;-74
2021/08/23 00:04:35;;;;;;;;;;;13.60;99.90;;;;;;5093154;28;20010;-74
2021/08/23 00:07:00;;;;;;;;;;;13.60;99.90;;;;;;5092608;28;19940;-74
2021/08/23 00:09:27;;;;;;;;;;;13.60;99.90;;;;;;5092969;28;20363;-74
2021/08/23 00:11:52;;;;;;;;;;;13.70;99.90;;;;;;5092697;28;19915;-74
2021/08/23 00:14:18;;;;;;;;;;;13.70;99.90;;;;;;5092556;28;19912;-74
2021/08/23 00:16:43;;;;;;;;;;;13.70;99.90;;;;;;5092352;28;19915;-74
2021/08/23 00:19:09;;;;;;;;;;;13.60;99.90;;;;;;5092822;28;19909;-74
2021/08/23 00:21:42;;;;;;;;;;;13.60;99.90;;;;;;5092629;28;20277;-74
2021/08/23 00:24:17;;;;;;;;;;;13.60;99.90;;;;;;5092643;28;19916;-74
2021/08/23 00:26:43;;;;;;;;;;;13.70;99.90;;;;;;5092063;28;20368;-74
2021/08/23 00:29:08;;;;;;;;;;;13.70;99.90;;;;;;5088020;28;19915;-74
2021/08/23 00:31:34;;;;;;;;;;;13.70;99.90;;;;;;5092341;28;19908;-74
2021/08/23 00:33:59;;;;;;;;;;;13.70;99.90;;;;;;5092477;28;19915;-74
2021/08/23 00:36:25;;;;;;;;;;;13.70;99.90;;;;;;5091893;28;20349;-74
2021/08/23 00:38:50;;;;;;;;;;;13.80;99.90;;;;;;5092415;28;19962;-74
2021/08/23 00:41:16;;;;;;;;;;;13.70;99.90;;;;;;5091948;28;19908;-74
2021/08/23 00:43:41;;;;;;;;;;;13.70;99.90;;;;;;5092282;28;19915;-74
2021/08/23 00:46:07;;;;;;;;;;;13.70;99.90;;;;;;5091480;28;19916;-74
2021/08/23 00:48:33;;;;;;;;;;;13.80;99.90;;;;;;5092021;28;20280;-74
2021/08/23 00:51:00;;;;;;;;;;;13.70;99.90;;;;;;5092075;28;20002;-74
2021/08/23 00:53:26;;;;;;;;;;;13.60;99.90;;;;;;5092079;28;19908;-74
2021/08/23 00:55:51;;;;;;;;;;;13.60;99.90;;;;;;5091713;28;19957;-74
2021/08/23 00:58:18;;;;;;;;;;;13.50;99.90;;;;;;5090351;28;20285;-74
2021/08/23 01:00:46;;;;;;;;;;;13.50;99.90;;;;;;5088698;28;20471;-74
2021/08/23 01:03:15;;;;;;;;;;;13.50;99.90;;;;;;5092004;28;19959;-74
2021/08/23 01:05:41;;;;;;;;;;;13.50;99.90;;;;;;5091979;28;19977;-74
2021/08/23 01:08:12;;;;;;;;;;;13.60;99.90;;;;;;5091581;28;20420;-74
2021/08/23 01:10:42;;;;;;;;;;;13.60;99.90;;;;;;5091550;28;20030;-74
2021/08/23 01:13:08;;;;;;;;;;;13.50;99.90;;;;;;5091858;28;20373;-74
2021/08/23 01:15:37;;;;;;;;;;;13.50;99.90;;;;;;5091646;28;20392;-74
2021/08/23 01:18:03;;;;;;;;;;;13.50;99.90;;;;;;5091254;28;19916;-74
2021/08/23 01:20:30;;;;;;;;;;;13.60;99.90;;;;;;5091621;28;20374;-74
2021/08/23 01:22:55;;;;;;;;;;;13.60;99.90;;;;;;5091643;28;19989;-74
2021/08/23 01:25:26;;;;;;;;;;;13.50;99.90;;;;;;5091516;28;19947;-74
2021/08/23 01:27:59;;;;;;;;;;;13.60;99.90;;;;;;5091125;28;19908;-74
2021/08/23 01:30:25;;;;;;;;;;;13.60;99.90;;;;;;5086805;28;19915;-74
2021/08/23 01:32:50;;;;;;;;;;;13.70;99.90;;;;;;5091502;28;19916;-74
2021/08/23 01:35:16;;;;;;;;;;;13.70;99.90;;;;;;5091472;28;19916;-74
2021/08/23 01:37:41;;;;;;;;;;;13.70;99.90;;;;;;5089679;28;20003;-74
2021/08/23 01:40:07;;;;;;;;;;;13.70;99.90;;;;;;5091379;28;19969;-74
2021/08/23 01:42:33;;;;;;;;;;;13.70;99.90;;;;;;5091481;28;19947;-74
2021/08/23 01:44:58;;;;;;;;;;;13.70;99.90;;;;;;5091535;28;19908;-74
2021/08/23 01:47:24;;;;;;;;;;;13.70;99.90;;;;;;5090916;28;19923;-74
2021/08/23 01:49:49;;;;;;;;;;;13.70;99.90;;;;;;5091408;28;20368;-74
2021/08/23 01:52:15;;;;;;;;;;;13.70;99.90;;;;;;5091171;28;19916;-74
2021/08/23 01:54:42;;;;;;;;;;;13.70;99.90;;;;;;5091162;28;19916;-74
2021/08/23 01:57:09;;;;;;;;;;;13.70;99.90;;;;;;5091377;28;19912;-74
2021/08/23 01:59:34;;;;;;;;;;;13.70;99.90;;;;;;5091052;28;20341;-74
2021/08/23 02:02:00;;;;;;;;;;;13.70;99.90;;;;;;5095071;28;19908;-74
2021/08/23 02:04:25;;;;;;;;;;;13.70;99.90;;;;;;5095293;28;19998;-74
2021/08/23 02:06:51;;;;;;;;;;;13.70;99.90;;;;;;5095248;28;19935;-74
2021/08/23 02:09:16;;;;;;;;;;;13.80;99.90;;;;;;5095208;28;19912;-74
2021/08/23 02:11:42;;;;;;;;;;;13.70;99.90;;;;;;5094972;28;20292;-74
2021/08/23 02:14:07;;;;;;;;;;;13.70;99.90;;;;;;5095142;28;19913;-74
2021/08/23 02:16:33;;;;;;;;;;;13.70;99.90;;;;;;5094623;28;19912;-74
2021/08/23 02:18:58;;;;;;;;;;;13.70;99.90;;;;;;5095114;28;20377;-74
2021/08/23 02:21:24;;;;;;;;;;;13.80;99.90;;;;;;5094754;28;19908;-74
2021/08/23 02:23:52;;;;;;;;;;;13.70;99.90;;;;;;5094902;28;19995;-74
2021/08/23 02:26:18;;;;;;;;;;;13.60;99.90;;;;;;5094561;28;20408;-74
2021/08/23 02:28:43;;;;;;;;;;;13.70;99.90;;;;;;5090250;28;19909;-74
2021/08/23 02:31:09;;;;;;;;;;;13.60;99.90;;;;;;5093212;28;20429;-74
2021/08/23 02:33:34;;;;;;;;;;;13.70;99.90;;;;;;5094735;28;19942;-74
2021/08/23 02:36:00;;;;;;;;;;;13.70;99.90;;;;;;5094287;28;19912;-75
2021/08/23 02:38:25;;;;;;;;;;;13.80;99.90;;;;;;5094332;28;19966;-74
2021/08/23 02:40:51;;;;;;;;;;;14.00;99.90;;;;;;5094418;28;20300;-74
2021/08/23 02:43:16;;;;;;;;;;;13.80;99.90;;;;;;5094578;28;19912;-74
2021/08/23 02:45:42;;;;;;;;;;;13.80;99.90;;;;;;5094370;28;20034;-74
2021/08/23 02:48:07;;;;;;;;;;;13.80;99.90;;;;;;5094138;28;19912;-74
2021/08/23 02:50:33;;;;;;;;;;;13.70;99.90;;;;;;5094038;28;20323;-74
2021/08/23 02:52:58;;;;;;;;;;;13.80;99.90;;;;;;5094225;28;19994;-74
2021/08/23 02:55:24;;;;;;;;;;;13.70;99.90;;;;;;5094315;28;20039;-74
2021/08/23 02:57:49;;;;;;;;;;;13.90;99.90;;;;;;5093856;28;19930;-74
2021/08/23 03:00:15;;;;;;;;;;;13.80;99.90;;;;;;5089485;28;19908;-74
2021/08/23 03:02:40;;;;;;;;;;;13.80;99.90;;;;;;5093810;28;19908;-74
2021/08/23 03:05:06;;;;;;;;;;;13.90;99.90;;;;;;5093871;28;19961;-74
2021/08/23 03:07:32;;;;;;;;;;;13.90;99.90;;;;;;5093467;28;20003;-74
2021/08/23 03:09:57;;;;;;;;;;;13.80;99.90;;;;;;5093739;28;20432;-74
2021/08/23 03:12:23;;;;;;;;;;;14.00;99.90;;;;;;5093784;28;20301;-74
2021/08/23 03:14:48;;;;;;;;;;;14.00;99.90;;;;;;5093777;28;20235;-74
2021/08/23 03:17:14;;;;;;;;;;;13.80;99.90;;;;;;5093524;28;19908;-74
2021/08/23 03:19:39;;;;;;;;;;;13.70;99.90;;;;;;5093495;28;19966;-74
2021/08/23 03:22:05;;;;;;;;;;;13.70;99.90;;;;;;5093667;28;19963;-74
2021/08/23 03:24:30;;;;;;;;;;;13.80;99.90;;;;;;5093669;28;19912;-74
2021/08/23 03:26:56;;;;;;;;;;;13.60;99.90;;;;;;5093340;28;19908;-75
2021/08/23 03:29:21;;;;;;;;;;;13.60;99.90;;;;;;5089196;28;19908;-74
2021/08/23 03:31:47;;;;;;;;;;;13.60;99.90;;;;;;5092837;28;19942;-74
2021/08/23 03:34:13;;;;;;;;;;;13.60;99.90;;;;;;5093379;28;19935;-74
2021/08/23 03:36:42;;;;;;;;;;;13.60;99.90;;;;;;5093029;28;19973;-74
2021/08/23 03:39:08;;;;;;;;;;;13.60;99.90;;;;;;5093181;28;20029;-74
2021/08/23 03:41:34;;;;;;;;;;;13.50;99.90;;;;;;5093322;28;19945;-74
2021/08/23 03:43:59;;;;;;;;;;;13.60;99.90;;;;;;5093391;28;19915;-74
2021/08/23 03:46:27;;;;;;;;;;;13.60;99.90;;;;;;5092772;28;19916;-74
2021/08/23 03:48:52;;;;;;;;;;;13.50;99.90;;;;;;5093067;28;19934;-74
2021/08/23 03:51:18;;;;;;;;;;;13.50;99.90;;;;;;5093112;28;20360;-74
2021/08/23 03:53:43;;;;;;;;;;;13.40;99.90;;;;;;5093192;28;19909;-74
2021/08/23 03:56:09;;;;;;;;;;;13.40;99.90;;;;;;5092699;28;20286;-74
2021/08/23 03:58:34;;;;;;;;;;;13.40;99.90;;;;;;5089383;28;19909;-74
2021/08/23 04:01:00;;;;;;;;;;;13.60;99.90;;;;;;5091976;28;19938;-74
2021/08/23 04:03:25;;;;;;;;;;;13.60;99.90;;;;;;5092803;28;19944;-74
2021/08/23 04:05:50;;;;;;;;;;;13.60;99.90;;;;;;5092789;28;20348;-75
2021/08/23 04:08:16;;;;;;;;;;;13.50;99.90;;;;;;5092522;28;19909;-74
2021/08/23 04:10:45;;;;;;;;;;;13.50;99.90;;;;;;5092751;28;19983;-74
2021/08/23 04:13:10;;;;;;;;;;;13.50;99.90;;;;;;5092739;28;19908;-74
2021/08/23 04:15:36;;;;;;;;;;;13.50;99.90;;;;;;5093117;28;20037;-74
2021/08/23 04:18:01;;;;;;;;;;;13.50;99.90;;;;;;5092096;28;19908;-74
2021/08/23 04:20:27;;;;;;;;;;;13.50;99.90;;;;;;5091896;28;19959;-74
2021/08/23 04:22:52;;;;;;;;;;;13.60;99.90;;;;;;5092505;28;19910;-74
2021/08/23 04:25:18;;;;;;;;;;;13.60;99.90;;;;;;5092574;28;20382;-74
2021/08/23 04:27:43;;;;;;;;;;;13.70;99.90;;;;;;5092061;28;19911;-74
2021/08/23 04:30:09;;;;;;;;;;;13.60;99.90;;;;;;5087741;28;19912;-75
2021/08/23 04:32:34;;;;;;;;;;;13.70;99.90;;;;;;5092180;28;19989;-74
2021/08/23 04:35:00;;;;;;;;;;;13.70;99.90;;;;;;5092270;28;19912;-74
2021/08/23 04:37:25;;;;;;;;;;;13.80;99.90;;;;;;5091911;28;19908;-74
2021/08/23 04:39:51;;;;;;;;;;;13.90;99.90;;;;;;5092181;28;19915;-74
2021/08/23 04:42:16;;;;;;;;;;;13.80;99.90;;;;;;5092129;28;20266;-74
2021/08/23 04:44:44;;;;;;;;;;;13.80;99.90;;;;;;5092071;28;20254;-74
2021/08/23 04:47:10;;;;;;;;;;;13.80;99.90;;;;;;5091557;28;19920;-74
2021/08/23 04:49:36;;;;;;;;;;;13.80;99.90;;;;;;5092021;28;19915;-74
2021/08/23 04:52:01;;;;;;;;;;;13.80;99.90;;;;;;5091949;28;19908;-74
2021/08/23 04:54:27;;;;;;;;;;;13.80;99.90;;;;;;5091866;28;19970;-74
2021/08/23 04:56:52;;;;;;;;;;;13.90;99.90;;;;;;5091424;28;19915;-74
2021/08/23 04:59:18;;;;;;;;;;;13.80;99.90;;;;;;5087400;28;20010;-74
2021/08/23 05:01:43;;;;;;;;;;;13.80;99.90;;;;;;5091451;28;19915;-74
2021/08/23 05:04:09;;;;;;;;;;;13.80;99.90;;;;;;5091891;28;19915;-74
2021/08/23 05:06:34;;;;;;;;;;;13.90;99.90;;;;;;5091741;28;20362;-74
2021/08/23 05:09:00;;;;;;;;;;;13.80;99.90;;;;;;5092103;28;19952;-74
2021/08/23 05:11:25;;;;;;;;;;;14.00;99.90;;;;;;5091686;28;19914;-74
2021/08/23 05:13:51;;;;;;;;;;;14.00;99.90;;;;;;5091736;28;19908;-74
2021/08/23 05:16:16;;;;;;;;;;;14.10;99.90;;;;;;5091109;28;19935;-74
2021/08/23 05:18:42;;;;;;;;;;;14.20;99.90;;;;;;5091584;28;19912;-74
2021/08/23 05:21:07;;;;;;;;;;;14.20;99.90;;;;;;5091634;28;19912;-74
2021/08/23 05:23:33;;;;;;;;;;;14.20;99.90;;;;;;5091614;28;20363;-74
2021/08/23 05:25:58;;;;;;;;;;;14.10;99.90;;;;;;5091499;28;19934;-74
2021/08/23 05:28:26;;;;;;;;;;;14.00;99.90;;;;;;5088936;28;19966;-74
2021/08/23 05:30:51;;;;;;;;;;;14.10;99.90;;;;;;5089164;28;19915;-74
2021/08/23 05:33:17;;;;;;;;;;;14.20;99.90;;;;;;5090432;28;19908;-75
2021/08/23 05:35:42;;;;;;;;;;;14.20;99.90;;;;;;5091339;28;19912;-74
2021/08/23 05:38:08;;;;;;;;;;;14.20;99.90;;;;;;5090978;28;19956;-75
2021/08/23 05:40:34;;;;;;;;;;;14.10;99.90;;;;;;5091144;28;19908;-74
2021/08/23 05:43:02;;;;;;;;;;;14.30;99.90;;;;;;5091645;28;19959;-74
2021/08/23 05:45:28;;;;;;;;;;;14.30;99.90;;;;;;5091539;28;20005;-74
2021/08/23 05:47:53;;;;;;;;;;;14.30;99.90;;;;;;5091088;28;19908;-74
2021/08/23 05:50:19;;;;;;;;;;;14.40;99.90;;;;;;5091259;28;19915;-74
2021/08/23 05:52:44;;;;;;;;;;;14.50;99.90;;;;;;5091515;28;20063;-74
2021/08/23 05:55:10;;;;;;;;;;;14.60;99.90;;;;;;5091325;28;19912;-74
2021/08/23 05:57:36;;;;;;;;;;;14.50;99.90;;;;;;5090930;28;19909;-74
2021/08/23 06:00:02;;;;;;;;;;;14.50;99.90;;;;;;5086537;28;19909;-74
2021/08/23 06:02:27;;;;;;;;;;;14.70;99.90;;;;;;5091038;28;19934;-74
2021/08/23 06:04:53;;;;;;;;;;;14.80;99.90;;;;;;5091308;28;19912;-74
2021/08/23 06:07:18;;;;;;;;;;;15.00;99.90;;;;;;5090894;28;19955;-74
2021/08/23 06:09:44;;;;;;;;;;;15.10;99.90;;;;;;5091222;28;19908;-74
2021/08/23 06:12:09;;;;;;;;;;;15.10;99.90;;;;;;5091089;28;19909;-74
2021/08/23 06:14:39;;;;;;;;;;;15.20;99.90;;;;;;5091005;28;20006;-75
2021/08/23 06:17:05;;;;;;;;;;;15.30;99.90;;;;;;5090627;28;19908;-74
2021/08/23 06:19:30;;;;;;;;;;;15.30;99.90;;;;;;5090935;28;19908;-74
2021/08/23 06:21:56;;;;;;;;;;;15.40;99.90;;;;;;5090824;28;19908;-74
2021/08/23 06:24:22;;;;;;;;;;;15.50;99.90;;;;;;5091019;28;19914;-75
2021/08/23 06:26:47;;;;;;;;;;;15.40;99.90;;;;;;5090675;28;20451;-75
2021/08/23 06:29:13;;;;;;;;;;;15.50;99.90;;;;;;5086446;28;20534;-75
2021/08/23 06:31:39;;;;;;;;;;;15.60;99.90;;;;;;5090637;28;19908;-75
2021/08/23 06:34:05;;;;;;;;;;;15.60;99.90;;;;;;5090898;28;20345;-74
2021/08/23 06:36:34;;;;;;;;;;;15.60;99.90;;;;;;5090518;28;20006;-75
2021/08/23 06:39:00;;;;;;;;;;;15.60;99.90;;;;;;5090857;28;19915;-74
2021/08/23 06:41:26;;;;;;;;;;;15.70;99.90;;;;;;5090780;28;19908;-75
2021/08/23 06:43:51;;;;;;;;;;;15.70;99.90;;;;;;5092234;28;19908;-74
2021/08/23 06:46:17;;;;;;;;;;;15.70;99.90;;;;;;5093851;28;20303;-74
2021/08/23 06:48:43;;;;;;;;;;;15.70;99.90;;;;;;5094438;28;19908;-74
2021/08/23 06:51:08;;;;;;;;;;;15.70;99.90;;;;;;5094272;28;19954;-75
2021/08/23 06:53:34;;;;;;;;;;;15.80;99.90;;;;;;5094380;28;19908;-74
2021/08/23 06:55:59;;;;;;;;;;;15.90;99.90;;;;;;5094104;28;19960;-75
2021/08/23 06:58:25;;;;;;;;;;;16.10;99.90;;;;;;5091487;28;20357;-74
2021/08/23 07:00:50;;;;;;;;;;;16.10;99.90;;;;;;5091810;28;19908;-75
2021/08/23 07:03:16;;;;;;;;;;;16.20;99.90;;;;;;5090502;28;19916;-74
2021/08/23 07:05:42;;;;;;;;;;;16.20;99.90;;;;;;5085414;28;19908;-75
2021/08/23 07:08:07;;;;;;;;;;;16.40;99.90;;;;;;5086982;28;20285;-75
2021/08/23 07:10:33;;;;;;;;;;;16.70;99.90;;;;;;5084176;28;19977;-75
2021/08/23 07:12:59;;;;;;;;;;;16.80;99.90;;;;;;5081222;28;20365;-75
2021/08/23 07:15:25;;;;;;;;;;;17.20;99.90;;;;;;5093181;28;19912;-74
2021/08/23 07:17:50;;;;;;;;;;;17.70;99.90;;;;;;5093293;28;19908;-75
2021/08/23 07:20:16;;;;;;;;;;;18.90;99.90;;;;;;5090848;28;19997;-75
2021/08/23 07:22:41;;;;;;;;;;;20.00;99.90;;;;;;5093510;28;19908;-75
2021/08/23 07:25:07;;;;;;;;;;;18.80;99.90;;;;;;5081587;28;19909;-74
2021/08/23 07:27:32;;;;;;;;;;;18.10;99.90;;;;;;5072778;28;19954;-74
2021/08/23 07:29:59;;;;;;;;;;;18.00;99.90;;;;;;5073142;28;19909;-75
2021/08/23 07:32:25;;;;;;;;;;;17.80;99.90;;;;;;5089228;28;19973;-74
2021/08/23 07:34:50;;;;;;;;;;;17.70;99.90;;;;;;5113624;28;19907;-75
2021/08/23 07:37:16;;;;;;;;;;;17.70;99.90;;;;;;5105815;28;19908;-75
2021/08/23 07:39:43;;;;;;;;;;;18.20;99.90;;;;;;5093065;28;19908;-75
2021/08/23 07:42:08;;;;;;;;;;;19.70;99.90;;;;;;5088184;28;19938;-75
2021/08/23 07:44:34;;;;;;;;;;;22.10;99.90;;;;;;5091237;28;20323;-75
2021/08/23 07:46:59;;;;;;;;;;;22.90;99.90;;;;;;5090335;28;20026;-75
2021/08/23 07:49:25;;;;;;;;;;;24.50;99.90;;;;;;5092761;28;20288;-75
2021/08/23 07:51:50;;;;;;;;;;;24.60;99.90;;;;;;5092946;28;19908;-75
2021/08/23 07:54:18;;;;;;;;;;;24.20;99.90;;;;;;5084727;28;19916;-74
2021/08/23 07:56:44;;;;;;;;;;;23.80;99.90;;;;;;5077533;28;19912;-75
2021/08/23 07:59:09;;;;;;;;;;;23.40;99.90;;;;;;5085268;28;19908;-75
2021/08/23 08:01:35;;;;;;;;;;;23.30;99.90;;;;;;5086474;28;19908;-75
2021/08/23 08:04:00;;;;;;;;;;;23.70;99.90;;;;;;5105409;28;20349;-75
2021/08/23 08:06:26;;;;;;;;;;;25.60;99.90;;;;;;5096644;28;19908;-75
2021/08/23 08:08:51;;;;;;;;;;;24.00;99.90;;;;;;5090074;28;20361;-75
2021/08/23 08:11:17;;;;;;;;;;;21.70;99.90;;;;;;5075991;28;19908;-75
2021/08/23 08:13:42;;;;;;;;;;;19.90;99.90;;;;;;5092596;28;19914;-75
2021/08/23 08:16:07;;;;;;;;;;;19.20;99.90;;;;;;5080619;28;19927;-75
2021/08/23 08:18:33;;;;;;;;;;;20.50;99.90;;;;;;5080164;28;19909;-75
2021/08/23 08:20:59;;;;;;;;;;;20.50;99.90;;;;;;5072386;28;19908;-75
2021/08/23 08:23:24;;;;;;;;;;;21.10;99.90;;;;;;5080933;28;19961;-75
2021/08/23 08:25:50;;;;;;;;;;;21.20;99.90;;;;;;5091833;28;19908;-75
2021/08/23 08:28:15;;;;;;;;;;;21.30;99.90;;;;;;5090512;28;19914;-75
2021/08/23 08:30:41;;;;;;;;;;;21.30;99.90;;;;;;5091526;28;19908;-75
2021/08/23 08:33:06;;;;;;;;;;;20.50;99.90;;;;;;5089259;28;19908;-75
2021/08/23 08:35:32;;;;;;;;;;;20.50;99.90;;;;;;5091705;28;19919;-75
2021/08/23 08:37:58;;;;;;;;;;;20.30;99.90;;;;;;5089819;28;19989;-75
2021/08/23 08:40:24;;;;;;;;;;;19.80;99.90;;;;;;5091451;28;19940;-75
2021/08/23 08:42:50;;;;;;;;;;;20.20;99.90;;;;;;5092085;28;20365;-75
2021/08/23 08:45:15;;;;;;;;;;;20.80;99.90;;;;;;5091740;28;19914;-75
2021/08/23 08:47:42;;;;;;;;;;;21.20;99.90;;;;;;5091805;28;19916;-75
2021/08/23 08:50:09;;;;;;;;;;;21.20;99.90;;;;;;5090286;28;19908;-75
2021/08/23 08:52:35;;;;;;;;;;;20.10;99.90;;;;;;5091836;28;20276;-75
2021/08/23 08:55:00;;;;;;;;;;;20.50;99.90;;;;;;5090911;28;19912;-75
2021/08/23 08:57:26;;;;;;;;;;;21.00;99.90;;;;;;5091266;28;19919;-75
2021/08/23 08:59:51;;;;;;;;;;;21.30;99.90;;;;;;5091293;28;19915;-75
2021/08/23 09:02:17;;;;;;;;;;;21.00;99.90;;;;;;5091530;28;19908;-75
2021/08/23 09:04:42;;;;;;;;;;;20.80;99.90;;;;;;5089656;28;19950;-75
2021/08/23 09:07:09;;;;;;;;;;;20.90;99.90;;;;;;5089399;28;19964;-75
2021/08/23 09:09:34;;;;;;;;;;;21.50;99.90;;;;;;5064337;28;19975;-75
2021/08/23 09:12:00;;;;;;;;;;;21.30;99.90;;;;;;5087669;28;19920;-75
2021/08/23 09:14:26;;;;;;;;;;;22.00;99.90;;;;;;5090478;28;19908;-75
2021/08/23 09:16:52;;;;;;;;;;;21.50;99.90;;;;;;5081174;28;19912;-74
2021/08/23 09:19:21;;;;;;;;;;;20.60;99.90;;;;;;5080486;28;20280;-75
2021/08/23 09:21:47;;;;;;;;;;;20.70;99.90;;;;;;5077021;28;20013;-74
2021/08/23 09:24:19;;;;;;;;;;;20.60;99.90;;;;;;5081042;28;19912;-75
2021/08/23 09:26:44;;;;;;;;;;;20.70;99.90;;;;;;5088031;28;20001;-75
2021/08/23 09:29:10;;;;;;;;;;;21.00;99.90;;;;;;5080590;28;19918;-75
2021/08/23 09:31:37;;;;;;;;;;;21.70;99.90;;;;;;5081237;28;20389;-75
2021/08/23 09:34:03;;;;;;;;;;;22.60;99.90;;;;;;5081617;28;19912;-75
2021/08/23 09:36:29;;;;;;;;;;;23.30;99.90;;;;;;5079071;28;20301;-75
2021/08/23 09:39:18;;;;;;;;;;;21.90;99.90;;;;;;5083627;28;19908;-75
2021/08/23 09:41:43;;;;;;;;;;;20.30;99.90;;;;;;5078707;28;20404;-74
2021/08/23 09:44:10;;;;;;;;;;;19.70;99.90;;;;;;5086456;28;19981;-75
2021/08/23 09:46:36;;;;;;;;;;;19.30;99.90;;;;;;5089106;28;19942;-75
2021/08/23 09:49:03;;;;;;;;;;;19.10;99.90;;;;;;5081813;28;19908;-75
2021/08/23 09:51:29;;;;;;;;;;;19.20;99.90;;;;;;5085142;28;19927;-75
2021/08/23 09:54:04;;;;;;;;;;;18.80;99.90;;;;;;5085935;28;19991;-75
2021/08/23 09:56:31;;;;;;;;;;;18.50;99.90;;;;;;5085202;28;19919;-75
2021/08/23 09:58:57;;;;;;;;;;;18.40;99.90;;;;;;5087587;28;20272;-75
2021/08/23 10:01:22;;;;;;;;;;;17.80;99.90;;;;;;5084429;28;19908;-75
2021/08/23 10:03:48;;;;;;;;;;;17.50;99.90;;;;;;5081307;28;19916;-75
2021/08/23 10:06:14;;;;;;;;;;;17.30;99.90;;;;;;5086637;28;19915;-75
2021/08/23 10:08:39;;;;;;;;;;;17.10;99.90;;;;;;5085504;28;19908;-75
2021/08/23 10:11:08;;;;;;;;;;;16.80;99.90;;;;;;5086657;28;20377;-75
2021/08/23 10:13:35;;;;;;;;;;;16.50;99.90;;;;;;5079252;28;19978;-75
2021/08/23 10:16:00;;;;;;;;;;;16.40;99.90;;;;;;5089657;28;20086;-75
2021/08/23 10:18:26;;;;;;;;;;;16.40;99.90;;;;;;5076148;28;20343;-75
2021/08/23 10:20:51;;;;;;;;;;;16.30;99.90;;;;;;5083116;28;19912;-75
2021/08/23 10:23:17;;;;;;;;;;;16.40;99.90;;;;;;5103519;28;19908;-75
2021/08/23 10:25:44;;;;;;;;;;;16.50;99.90;;;;;;5087460;28;20368;-75
2021/08/23 10:28:13;;;;;;;;;;;16.90;99.90;;;;;;5077987;28;20510;-74
2021/08/23 10:30:39;;;;;;;;;;;17.30;99.90;;;;;;5090941;28;19998;-75
2021/08/23 10:33:12;;;;;;;;;;;17.60;99.90;;;;;;5082507;28;20348;-75
2021/08/23 10:35:59;;;;;;;;;;;17.80;99.90;;;;;;5094030;28;20018;-75
2021/08/23 10:38:25;;;;;;;;;;;17.80;99.90;;;;;;5091983;28;19912;-75
2021/08/23 10:41:06;;;;;;;;;;;18.20;99.90;;;;;;5093926;28;19909;-75
2021/08/23 10:43:41;;;;;;;;;;;18.50;99.90;;;;;;5093790;28;19946;-75
2021/08/23 10:46:17;;;;;;;;;;;18.70;99.90;;;;;;5093932;28;20365;-75
2021/08/23 10:48:47;;;;;;;;;;;19.20;99.90;;;;;;5094185;28;19908;-75
2021/08/23 10:51:12;;;;;;;;;;;19.30;99.90;;;;;;5094061;28;19965;-75
2021/08/23 10:53:38;;;;;;;;;;;20.00;99.90;;;;;;5091479;28;19912;-75
2021/08/23 10:56:13;;;;;;;;;;;20.10;99.90;;;;;;5089583;28;19912;-75
2021/08/23 10:58:39;;;;;;;;;;;20.50;99.90;;;;;;5094038;28;19912;-75
2021/08/23 11:01:14;;;;;;;;;;;21.60;99.90;;;;;;5093713;28;19908;-75
2021/08/23 11:03:40;;;;;;;;;;;21.00;99.90;;;;;;5089187;28;19954;-75
2021/08/23 11:06:06;;;;;;;;;;;21.60;99.90;;;;;;5092189;28;20272;-75
2021/08/23 11:08:31;;;;;;;;;;;22.80;99.90;;;;;;5090376;28;19964;-75
2021/08/23 11:11:10;;;;;;;;;;;23.70;99.90;;;;;;5097053;28;20369;-75
2021/08/23 11:13:39;;;;;;;;;;;24.40;99.90;;;;;;5089150;28;19981;-75
2021/08/23 11:16:06;;;;;;;;;;;24.50;99.90;;;;;;5092087;28;20200;-75
2021/08/23 11:18:38;;;;;;;;;;;24.00;99.90;;;;;;5092450;28;19915;-75
2021/08/23 11:21:04;;;;;;;;;;;24.20;99.90;;;;;;5091885;28;19961;-75
2021/08/23 11:23:30;;;;;;;;;;;23.30;99.90;;;;;;5091291;28;19912;-75
2021/08/23 11:25:58;;;;;;;;;;;22.80;99.90;;;;;;5091083;28;19948;-75
2021/08/23 11:28:29;;;;;;;;;;;22.60;99.90;;;;;;5086245;28;19916;-75
2021/08/23 11:30:55;;;;;;;;;;;21.90;99.90;;;;;;5091542;28;20480;-75
2021/08/23 11:33:25;;;;;;;;;;;22.00;99.90;;;;;;5095664;28;19915;-75
2021/08/23 11:35:51;;;;;;;;;;;20.50;99.90;;;;;;5091197;28;19912;-75
2021/08/23 11:38:16;;;;;;;;;;;20.10;99.90;;;;;;5086532;28;20277;-75
2021/08/23 11:40:44;;;;;;;;;;;19.30;99.90;;;;;;5087852;28;19948;-75
2021/08/23 11:43:09;;;;;;;;;;;19.00;99.90;;;;;;5089241;28;19919;-75
2021/08/23 11:45:36;;;;;;;;;;;18.90;99.90;;;;;;5075801;28;20143;-75
2021/08/23 11:48:02;;;;;;;;;;;18.90;99.90;;;;;;5088874;28;19916;-75
2021/08/23 11:50:28;;;;;;;;;;;18.80;99.90;;;;;;5090908;28;19919;-75
2021/08/23 11:53:01;;;;;;;;;;;18.60;99.90;;;;;;5090340;28;19908;-75
2021/08/23 11:55:31;;;;;;;;;;;18.70;99.90;;;;;;5087939;28;19965;-75
2021/08/23 11:57:58;;;;;;;;;;;18.90;99.90;;;;;;5090806;28;20004;-75
2021/08/23 12:00:24;;;;;;;;;;;18.30;99.90;;;;;;5089488;28;19915;-75
2021/08/23 12:02:59;;;;;;;;;;;18.30;99.90;;;;;;5086908;28;19912;-75
2021/08/23 12:05:25;;;;;;;;;;;18.70;99.90;;;;;;5112942;28;20006;-75
2021/08/23 12:07:50;;;;;;;;;;;18.40;99.90;;;;;;5086709;28;19991;-75
2021/08/23 12:10:22;;;;;;;;;;;18.00;99.90;;;;;;5087734;28;20288;-76
2021/08/23 12:12:47;;;;;;;;;;;17.40;99.90;;;;;;5087988;28;19909;-76
2021/08/23 12:15:16;;;;;;;;;;;17.30;99.90;;;;;;5079630;28;20332;-76
2021/08/23 12:17:42;;;;;;;;;;;17.00;99.90;;;;;;5084826;28;19915;-75
2021/08/23 12:20:08;;;;;;;;;;;16.50;99.90;;;;;;5089588;28;20297;-76
2021/08/23 12:22:33;;;;;;;;;;;16.40;99.90;;;;;;5080216;28;20007;-76
2021/08/23 12:25:01;;;;;;;;;;;16.50;99.90;;;;;;5068607;28;20723;-76
2021/08/23 12:27:26;;;;;;;;;;;16.90;99.90;;;;;;5080924;28;19969;-76
2021/08/23 12:29:52;;;;;;;;;;;17.40;99.90;;;;;;5085910;28;19912;-76
2021/08/23 12:32:17;;;;;;;;;;;17.90;99.90;;;;;;5085494;28;19912;-76
2021/08/23 12:34:47;;;;;;;;;;;18.30;99.90;;;;;;5087007;28;19908;-75
2021/08/23 12:37:13;;;;;;;;;;;18.20;99.90;;;;;;5084572;28;20415;-75
2021/08/23 12:39:39;;;;;;;;;;;18.40;99.90;;;;;;5095593;28;19913;-75
2021/08/23 12:42:06;;;;;;;;;;;18.50;99.90;;;;;;5071259;28;19915;-75
2021/08/23 12:44:32;;;;;;;;;;;18.50;99.90;;;;;;5071858;28;20352;-75
2021/08/23 12:46:57;;;;;;;;;;;18.70;99.90;;;;;;5073548;28;20018;-75
2021/08/23 12:49:23;;;;;;;;;;;18.70;99.90;;;;;;5074803;28;19966;-75
2021/08/23 12:51:49;;;;;;;;;;;18.80;99.90;;;;;;5084191;28;19916;-75
2021/08/23 12:54:15;;;;;;;;;;;18.60;99.90;;;;;;5085452;28;19912;-74
2021/08/23 12:56:41;;;;;;;;;;;18.80;99.90;;;;;;5083752;28;19912;-74
2021/08/23 12:59:07;;;;;;;;;;;19.20;99.90;;;;;;5089990;28;19962;-74
2021/08/23 13:01:33;;;;;;;;;;;19.60;99.90;;;;;;5090809;28;19907;-74
2021/08/23 13:03:59;;;;;;;;;;;20.40;99.90;;;;;;5084433;28;19943;-74
2021/08/23 13:06:24;;;;;;;;;;;21.70;99.90;;;;;;5098307;28;19967;-74
2021/08/23 13:08:50;;;;;;;;;;;22.50;99.90;;;;;;5091760;28;19909;-74
2021/08/23 13:11:15;;;;;;;;;;;21.90;99.90;;;;;;5091965;28;20387;-74
2021/08/23 13:13:41;;;;;;;;;;;20.30;99.90;;;;;;5082711;28;19920;-74
2021/08/23 13:16:06;;;;;;;;;;;20.10;99.90;;;;;;5082777;28;19952;-74
2021/08/23 13:18:32;;;;;;;;;;;19.70;99.90;;;;;;5091600;28;19908;-74
2021/08/23 13:20:58;;;;;;;;;;;19.30;99.90;;;;;;5092701;28;19908;-74
2021/08/23 13:23:24;;;;;;;;;;;19.70;99.90;;;;;;5092496;28;20010;-74
2021/08/23 13:25:49;;;;;;;;;;;19.70;99.90;;;;;;5091378;28;19996;-74
2021/08/23 13:28:15;;;;;;;;;;;19.60;99.90;;;;;;5090089;28;20453;-74
2021/08/23 13:30:41;;;;;;;;;;;19.90;99.90;;;;;;5091538;28;19955;-74
2021/08/23 13:33:06;;;;;;;;;;;20.20;99.90;;;;;;5089655;28;19915;-74
2021/08/23 13:35:33;;;;;;;;;;;19.90;99.90;;;;;;5089921;28;20319;-74
2021/08/23 13:37:58;;;;;;;;;;;20.00;99.90;;;;;;5087140;28;20410;-75
2021/08/23 13:40:24;;;;;;;;;;;20.40;99.90;;;;;;5087699;28;19923;-74
2021/08/23 13:42:49;;;;;;;;;;;20.30;99.90;;;;;;5083040;28;19922;-74
2021/08/23 13:45:15;;;;;;;;;;;20.30;99.90;;;;;;5081622;28;20395;-74
2021/08/23 13:47:40;;;;;;;;;;;20.00;99.90;;;;;;5081371;28;19919;-74
2021/08/23 13:50:06;;;;;;;;;;;20.20;99.90;;;;;;5086092;28;19966;-75
2021/08/23 13:52:31;;;;;;;;;;;20.20;99.90;;;;;;5084233;28;19908;-75
2021/08/23 13:54:57;;;;;;;;;;;20.50;99.90;;;;;;5073997;28;20378;-74
2021/08/23 13:57:23;;;;;;;;;;;20.70;99.90;;;;;;5090819;28;19912;-74
2021/08/23 13:59:48;;;;;;;;;;;20.40;99.90;;;;;;5095194;28;19912;-74
2021/08/23 14:02:14;;;;;;;;;;;19.90;99.90;;;;;;5089081;28;19976;-75
2021/08/23 14:04:39;;;;;;;;;;;21.20;99.90;;;;;;5094945;28;19908;-74
2021/08/23 14:07:05;;;;;;;;;;;21.10;99.90;;;;;;5086894;28;19953;-75
2021/08/23 14:09:30;;;;;;;;;;;20.30;99.90;;;;;;5095296;28;19909;-74
2021/08/23 14:11:56;;;;;;;;;;;20.00;99.90;;;;;;5093245;28;19908;-74